Metar z pełnej godziny Komunikat METAR ze strony awiacja.imgw.pl Metar G00 EPMO METAR EPMO 162300Z 17004KT 130V200 9999 OVC026 M01/M04 Q1020 R08/290195 =